createdAt,value
2018-09-28T00:02:02.978Z,99.90
2018-09-28T00:04:31.273Z,99.90
2018-09-28T00:06:59.592Z,99.90
2018-09-28T00:09:27.849Z,99.90
2018-09-28T00:11:56.123Z,99.90
2018-09-28T00:14:24.404Z,99.90
2018-09-28T00:16:52.781Z,99.90
2018-09-28T00:19:21.062Z,99.90
2018-09-28T00:21:49.329Z,99.90
2018-09-28T00:24:17.593Z,99.90
2018-09-28T00:26:45.871Z,99.90
2018-09-28T00:29:14.158Z,99.90
2018-09-28T00:31:43.535Z,99.90
2018-09-28T00:34:11.943Z,99.90
2018-09-28T00:36:40.221Z,99.90
2018-09-28T00:39:09.161Z,99.90
2018-09-28T00:41:37.419Z,99.90
2018-09-28T00:44:05.694Z,99.90
2018-09-28T00:46:34.129Z,99.90
2018-09-28T00:49:02.402Z,99.90
2018-09-28T00:51:30.713Z,99.90
2018-09-28T00:53:59.020Z,99.90
2018-09-28T00:56:27.322Z,99.90
2018-09-28T00:58:55.620Z,99.90
2018-09-28T01:01:23.925Z,99.90
2018-09-28T01:03:52.181Z,99.90
2018-09-28T01:06:20.498Z,99.90
2018-09-28T01:08:48.786Z,99.90
2018-09-28T01:11:17.092Z,99.90
2018-09-28T01:13:45.445Z,99.90
2018-09-28T01:16:13.702Z,99.90
2018-09-28T01:18:41.959Z,99.90
2018-09-28T01:21:10.497Z,99.90
2018-09-28T01:23:38.918Z,99.90
2018-09-28T01:26:07.173Z,99.90
2018-09-28T01:28:35.543Z,99.90
2018-09-28T01:31:03.970Z,99.90
2018-09-28T01:33:32.229Z,99.90
2018-09-28T01:36:00.525Z,99.90
2018-09-28T01:38:28.789Z,99.90
2018-09-28T01:40:57.042Z,99.90
2018-09-28T01:43:25.291Z,99.90
2018-09-28T01:45:53.616Z,99.90
2018-09-28T01:48:21.939Z,99.90
2018-09-28T01:50:50.313Z,99.90
2018-09-28T01:53:18.594Z,99.90
2018-09-28T01:55:46.921Z,99.90
2018-09-28T01:58:15.402Z,99.90
2018-09-28T02:00:43.676Z,99.90
2018-09-28T02:03:11.921Z,99.90
2018-09-28T02:05:40.294Z,99.90
2018-09-28T02:08:08.566Z,99.90
2018-09-28T02:10:36.859Z,99.90
2018-09-28T02:13:05.616Z,99.90
2018-09-28T02:15:33.943Z,99.90
2018-09-28T02:18:02.194Z,99.90
2018-09-28T02:20:30.449Z,99.90
2018-09-28T02:22:58.742Z,99.90
2018-09-28T02:25:26.993Z,99.90
2018-09-28T02:27:55.297Z,99.90
2018-09-28T02:30:23.563Z,99.90
2018-09-28T02:32:51.825Z,99.90
2018-09-28T02:35:20.102Z,99.90
2018-09-28T02:37:48.512Z,99.90
2018-09-28T02:40:16.769Z,99.90
2018-09-28T02:42:45.876Z,99.90
2018-09-28T02:45:14.140Z,99.90
2018-09-28T02:47:42.661Z,99.90
2018-09-28T02:50:11.093Z,99.90
2018-09-28T02:52:39.674Z,99.90
2018-09-28T02:55:07.939Z,99.90
2018-09-28T02:57:36.364Z,99.90
2018-09-28T03:00:04.819Z,99.90
2018-09-28T03:02:33.377Z,99.90
2018-09-28T03:05:01.658Z,99.90
2018-09-28T03:07:30.004Z,99.90
2018-09-28T03:09:58.339Z,99.90
2018-09-28T03:12:26.702Z,99.90
2018-09-28T03:14:54.946Z,99.90
2018-09-28T03:17:23.218Z,99.90
2018-09-28T03:19:51.493Z,99.90
2018-09-28T03:22:19.749Z,99.90
2018-09-28T03:24:48.027Z,99.90
2018-09-28T03:27:16.303Z,99.90
2018-09-28T03:29:44.588Z,99.90
2018-09-28T03:32:12.895Z,99.90
2018-09-28T03:34:41.200Z,99.90
2018-09-28T03:37:09.669Z,99.90
2018-09-28T03:39:37.950Z,99.90
2018-09-28T03:42:06.235Z,99.90
2018-09-28T03:44:34.496Z,99.90
2018-09-28T03:47:02.954Z,99.90
2018-09-28T03:49:31.229Z,99.90
2018-09-28T03:51:59.530Z,99.90
2018-09-28T03:54:27.958Z,99.90
2018-09-28T03:56:56.243Z,99.90
2018-09-28T03:59:24.776Z,99.90
2018-09-28T04:01:53.040Z,99.90
2018-09-28T04:04:21.322Z,99.90
2018-09-28T04:06:49.618Z,99.90
2018-09-28T04:09:17.881Z,99.90
2018-09-28T04:11:46.206Z,99.90
2018-09-28T04:14:14.556Z,99.90
2018-09-28T04:16:42.825Z,99.90
2018-09-28T04:19:11.151Z,99.90
2018-09-28T04:21:39.611Z,99.90
2018-09-28T04:24:07.934Z,99.90
2018-09-28T04:26:36.470Z,99.90
2018-09-28T04:29:04.845Z,99.90
2018-09-28T04:31:33.109Z,99.90
2018-09-28T04:34:01.762Z,99.90
2018-09-28T04:36:30.042Z,99.90
2018-09-28T04:38:58.337Z,99.90
2018-09-28T04:41:26.696Z,99.90
2018-09-28T04:43:55.130Z,99.90
2018-09-28T04:46:23.916Z,99.90
2018-09-28T04:48:52.311Z,99.90
2018-09-28T04:51:20.659Z,99.90
2018-09-28T04:53:48.962Z,99.90
2018-09-28T04:56:17.241Z,99.90
2018-09-28T04:58:45.618Z,99.90
2018-09-28T05:01:13.931Z,99.90
2018-09-28T05:03:42.311Z,99.90
2018-09-28T05:06:10.709Z,99.90
2018-09-28T05:08:39.146Z,99.90
2018-09-28T05:11:07.655Z,99.90
2018-09-28T05:13:36.118Z,99.90
2018-09-28T05:16:04.543Z,99.90
2018-09-28T05:18:32.819Z,99.90
2018-09-28T05:21:01.485Z,99.90
2018-09-28T05:23:29.749Z,99.90
2018-09-28T05:25:58.066Z,99.90
2018-09-28T05:28:26.372Z,99.90
2018-09-28T05:30:54.909Z,99.90
2018-09-28T05:33:23.205Z,99.90
2018-09-28T05:35:51.534Z,99.90
2018-09-28T05:38:20.002Z,99.90
2018-09-28T05:40:48.484Z,99.90
2018-09-28T05:43:19.764Z,99.90
2018-09-28T05:45:51.024Z,99.90
2018-09-28T05:48:19.317Z,99.90
2018-09-28T05:50:47.565Z,99.90
2018-09-28T05:53:15.901Z,99.90
2018-09-28T05:55:44.205Z,99.90
2018-09-28T05:58:17.947Z,99.90
2018-09-28T06:00:51.714Z,99.90
2018-09-28T06:03:21.942Z,99.90
2018-09-28T06:05:55.713Z,99.90
2018-09-28T06:08:24.028Z,99.90
2018-09-28T06:10:52.282Z,99.90
2018-09-28T06:13:21.665Z,99.90
2018-09-28T06:15:49.965Z,99.90
2018-09-28T06:18:18.333Z,99.90
2018-09-28T06:20:47.466Z,99.90
2018-09-28T06:23:15.753Z,99.90
2018-09-28T06:25:44.097Z,99.90
2018-09-28T06:28:12.331Z,99.90
2018-09-28T06:30:40.737Z,99.90
2018-09-28T06:33:10.093Z,99.90
2018-09-28T06:35:38.478Z,99.90
2018-09-28T06:38:06.853Z,99.90
2018-09-28T06:40:35.119Z,99.90
2018-09-28T06:43:03.486Z,99.90
2018-09-28T06:45:32.186Z,99.90
2018-09-28T06:48:00.509Z,99.90
2018-09-28T06:50:28.779Z,99.90
2018-09-28T06:52:57.042Z,99.90
2018-09-28T06:55:25.419Z,99.90
2018-09-28T06:57:53.699Z,99.90
2018-09-28T07:00:22.086Z,99.90
2018-09-28T07:02:50.305Z,99.90
2018-09-28T07:05:19.065Z,99.90
2018-09-28T07:07:47.346Z,99.90
2018-09-28T07:10:15.652Z,99.90
2018-09-28T07:12:44.268Z,99.90
2018-09-28T07:15:12.565Z,99.90
2018-09-28T07:17:40.866Z,99.90
2018-09-28T07:20:09.286Z,99.90
2018-09-28T07:22:37.664Z,99.90
2018-09-28T07:25:06.079Z,99.90
2018-09-28T07:27:34.420Z,99.90
2018-09-28T07:32:31.157Z,99.90
2018-09-28T07:35:00.087Z,99.90
2018-09-28T07:37:28.405Z,99.90
2018-09-28T07:39:56.764Z,99.90
2018-09-28T07:42:25.171Z,99.90
2018-09-28T07:44:53.447Z,99.90
2018-09-28T07:47:21.864Z,99.90
2018-09-28T07:49:50.251Z,99.90
2018-09-28T07:52:18.662Z,99.90
2018-09-28T07:54:46.940Z,99.90
2018-09-28T07:57:15.221Z,99.90
2018-09-28T07:59:43.600Z,99.90
2018-09-28T08:02:11.881Z,99.90
2018-09-28T08:04:40.201Z,99.90
2018-09-28T08:07:08.678Z,99.90
2018-09-28T08:09:36.950Z,99.90
2018-09-28T08:12:05.213Z,99.90
2018-09-28T08:14:33.482Z,99.90
2018-09-28T08:17:01.739Z,99.90
2018-09-28T08:19:30.114Z,99.90
2018-09-28T08:21:58.456Z,99.90
2018-09-28T08:24:26.746Z,99.90
2018-09-28T08:26:55.022Z,99.90
2018-09-28T08:29:23.362Z,99.90
2018-09-28T08:31:51.673Z,99.90
2018-09-28T08:34:19.974Z,99.90
2018-09-28T08:36:48.339Z,99.90
2018-09-28T08:39:16.518Z,99.90
2018-09-28T08:41:44.875Z,99.90
2018-09-28T08:44:13.123Z,99.90
2018-09-28T08:46:45.089Z,99.90
2018-09-28T08:49:13.435Z,99.90
2018-09-28T08:51:41.674Z,99.90
2018-09-28T08:54:09.950Z,99.90
2018-09-28T08:56:38.294Z,99.90
2018-09-28T08:59:06.565Z,99.90
2018-09-28T09:01:34.873Z,99.90
2018-09-28T09:04:03.174Z,99.90
2018-09-28T09:06:31.440Z,99.90
2018-09-28T09:08:59.848Z,99.90
2018-09-28T09:11:28.305Z,99.90
2018-09-28T09:13:56.695Z,99.90
2018-09-28T09:16:25.146Z,99.90
2018-09-28T09:18:53.454Z,99.90
2018-09-28T09:21:21.737Z,99.90
2018-09-28T09:23:50.187Z,99.90
2018-09-28T09:26:18.539Z,99.90
2018-09-28T09:28:46.814Z,99.90
2018-09-28T09:31:15.093Z,99.90
2018-09-28T09:33:43.346Z,99.90
2018-09-28T09:36:11.602Z,99.90
2018-09-28T09:38:40.071Z,99.90
2018-09-28T09:41:08.336Z,99.90
2018-09-28T09:43:36.601Z,99.90
2018-09-28T09:46:05.126Z,99.90
2018-09-28T09:48:33.418Z,99.90
2018-09-28T09:51:01.900Z,99.90
2018-09-28T09:53:30.204Z,99.90
2018-09-28T09:55:58.486Z,99.90
2018-09-28T09:58:26.762Z,99.90
2018-09-28T10:01:00.554Z,99.90
2018-09-28T10:03:34.390Z,99.90
2018-09-28T10:06:02.797Z,99.90
2018-09-28T10:08:31.186Z,99.90
2018-09-28T10:10:59.506Z,99.90
2018-09-28T10:13:27.901Z,99.90
2018-09-28T10:15:56.154Z,99.90
2018-09-28T10:18:24.433Z,99.90
2018-09-28T10:20:52.733Z,99.90
2018-09-28T10:23:21.019Z,99.90
2018-09-28T10:25:49.470Z,99.90
2018-09-28T10:28:18.003Z,99.90
2018-09-28T10:30:46.423Z,99.70
2018-09-28T10:33:15.809Z,99.90
2018-09-28T10:35:44.259Z,99.90
2018-09-28T10:38:12.673Z,98.60
2018-09-28T10:40:41.076Z,98.60
2018-09-28T10:43:09.243Z,98.80
2018-09-28T10:45:37.667Z,98.60
2018-09-28T10:48:05.958Z,98.40
2018-09-28T10:50:34.331Z,98.00
2018-09-28T10:53:02.672Z,98.10
2018-09-28T10:55:31.039Z,98.10
2018-09-28T10:57:59.331Z,97.50
2018-09-28T11:00:27.719Z,97.50
2018-09-28T11:02:56.033Z,97.80
2018-09-28T11:05:24.315Z,97.40
2018-09-28T11:07:52.597Z,96.80
2018-09-28T11:10:21.043Z,97.00
2018-09-28T11:12:49.306Z,97.10
2018-09-28T11:15:17.629Z,96.80
2018-09-28T11:17:46.003Z,96.60
2018-09-28T11:20:14.287Z,95.90
2018-09-28T11:22:52.607Z,95.80
2018-09-28T11:25:27.372Z,95.00
2018-09-28T11:27:55.647Z,94.80
2018-09-28T11:30:23.905Z,94.00
2018-09-28T11:32:52.287Z,93.20
2018-09-28T11:38:13.644Z,91.40
2018-09-28T11:40:41.930Z,92.70
2018-09-28T11:43:11.112Z,91.60
2018-09-28T11:45:39.572Z,91.60
2018-09-28T11:48:07.966Z,91.20
2018-09-28T11:50:36.221Z,90.10
2018-09-28T11:53:04.651Z,90.00
2018-09-28T11:55:32.904Z,89.80
2018-09-28T11:58:01.385Z,90.10
2018-09-28T12:00:29.789Z,89.60
2018-09-28T12:02:58.042Z,87.90
2018-09-28T12:05:26.350Z,90.30
2018-09-28T12:07:54.636Z,89.00
2018-09-28T12:10:22.955Z,89.20
2018-09-28T12:12:51.231Z,87.60
2018-09-28T12:15:19.602Z,86.80
2018-09-28T12:17:47.854Z,87.10
2018-09-28T12:20:16.131Z,86.10
2018-09-28T12:22:44.383Z,84.20
2018-09-28T12:25:12.694Z,83.00
2018-09-28T12:27:41.091Z,81.40
2018-09-28T12:30:09.500Z,84.30
2018-09-28T12:32:37.747Z,83.70
2018-09-28T12:35:06.127Z,82.90
2018-09-28T12:37:34.528Z,81.60
2018-09-28T12:40:02.856Z,80.60
2018-09-28T12:42:31.150Z,78.10
2018-09-28T12:44:59.427Z,77.20
2018-09-28T12:47:27.761Z,77.10
2018-09-28T12:49:56.035Z,76.30
2018-09-28T12:52:24.458Z,75.10
2018-09-28T12:54:52.808Z,75.70
2018-09-28T12:57:21.024Z,75.40
2018-09-28T12:59:49.362Z,75.60
2018-09-28T13:02:17.875Z,74.90
2018-09-28T13:04:46.096Z,75.80
2018-09-28T13:07:14.338Z,78.30
2018-09-28T13:09:42.667Z,77.50
2018-09-28T13:12:10.964Z,79.60
2018-09-28T13:14:39.369Z,80.10
2018-09-28T13:17:07.693Z,80.10
2018-09-28T13:19:36.042Z,80.70
2018-09-28T13:22:04.354Z,80.40
2018-09-28T13:24:32.766Z,78.00
2018-09-28T13:27:01.067Z,74.90
2018-09-28T13:29:29.350Z,76.70
2018-09-28T13:31:57.671Z,74.20
2018-09-28T13:34:26.057Z,76.80
2018-09-28T13:36:54.828Z,77.40
2018-09-28T13:39:23.312Z,78.20
2018-09-28T13:41:51.677Z,76.60
2018-09-28T13:44:20.015Z,76.10
2018-09-28T13:46:50.470Z,76.10
2018-09-28T13:49:18.643Z,75.30
2018-09-28T13:51:46.959Z,71.50
2018-09-28T13:54:15.330Z,71.90
2018-09-28T13:56:43.660Z,70.70
2018-09-28T13:59:12.146Z,69.50
2018-09-28T14:01:40.548Z,66.80
2018-09-28T14:04:08.939Z,66.10
2018-09-28T14:06:37.591Z,60.30
2018-09-28T14:09:07.974Z,59.50
2018-09-28T14:11:37.300Z,60.30
2018-09-28T14:14:05.678Z,59.60
2018-09-28T14:16:34.149Z,61.00
2018-09-28T14:19:05.030Z,62.30
2018-09-28T14:21:33.422Z,63.10
2018-09-28T14:24:01.712Z,64.30
2018-09-28T14:26:30.080Z,65.10
2018-09-28T14:28:58.395Z,63.70
2018-09-28T14:31:26.837Z,63.80
2018-09-28T14:33:55.215Z,64.50
2018-09-28T14:36:24.186Z,64.90
2018-09-28T14:38:52.471Z,65.20
2018-09-28T14:41:20.778Z,66.80
2018-09-28T14:43:49.055Z,66.60
2018-09-28T14:46:17.465Z,64.70
2018-09-28T14:48:45.975Z,62.90
2018-09-28T14:51:14.178Z,63.70
2018-09-28T14:53:42.582Z,64.50
2018-09-28T14:56:10.921Z,67.00
2018-09-28T14:58:39.284Z,69.20
2018-09-28T15:01:07.708Z,70.20
2018-09-28T15:03:35.927Z,70.40
2018-09-28T15:06:04.491Z,71.40
2018-09-28T15:08:32.843Z,71.00
2018-09-28T15:11:01.208Z,70.40
2018-09-28T15:13:29.697Z,71.50
2018-09-28T15:15:58.593Z,71.90
2018-09-28T15:18:26.982Z,70.50
2018-09-28T15:20:55.274Z,70.10
2018-09-28T15:23:23.607Z,68.50
2018-09-28T15:25:51.906Z,68.80
2018-09-28T15:28:20.204Z,67.50
2018-09-28T15:30:48.507Z,67.80
2018-09-28T15:33:16.793Z,66.70
2018-09-28T15:35:45.118Z,67.40
2018-09-28T15:38:13.501Z,67.10
2018-09-28T15:40:41.810Z,65.70
2018-09-28T15:43:10.075Z,62.60
2018-09-28T15:45:38.527Z,64.70
2018-09-28T15:48:06.883Z,62.00
2018-09-28T15:50:35.136Z,60.50
2018-09-28T15:53:03.358Z,61.50
2018-09-28T15:55:31.653Z,59.70
2018-09-28T15:57:59.997Z,60.90
2018-09-28T16:00:28.274Z,59.20
2018-09-28T16:02:56.543Z,61.40
2018-09-28T16:05:24.902Z,61.20
2018-09-28T16:07:53.145Z,59.40
2018-09-28T16:10:21.492Z,60.00
2018-09-28T16:12:49.794Z,59.20
2018-09-28T16:15:18.049Z,59.60
2018-09-28T16:17:46.336Z,59.50
2018-09-28T16:20:14.655Z,60.40
2018-09-28T16:22:43.000Z,60.60
2018-09-28T16:25:11.436Z,62.60
2018-09-28T16:27:39.741Z,62.90
2018-09-28T16:30:08.145Z,64.30
2018-09-28T16:32:37.273Z,67.40
2018-09-28T16:35:05.633Z,66.70
2018-09-28T16:37:35.070Z,68.60
2018-09-28T16:40:03.462Z,69.40
2018-09-28T16:42:31.737Z,72.10
2018-09-28T16:45:00.022Z,73.00
2018-09-28T16:47:28.475Z,73.80
2018-09-28T16:49:56.751Z,75.00
2018-09-28T16:52:25.106Z,76.80
2018-09-28T16:54:53.511Z,75.00
2018-09-28T16:57:21.869Z,76.40
2018-09-28T16:59:50.338Z,78.00
2018-09-28T17:02:18.690Z,77.30
2018-09-28T17:04:47.012Z,76.90
2018-09-28T17:07:15.674Z,75.80
2018-09-28T17:09:43.947Z,76.80
2018-09-28T17:12:12.294Z,76.90
2018-09-28T17:14:40.559Z,80.00
2018-09-28T17:17:08.899Z,78.70
2018-09-28T17:19:37.257Z,79.00
2018-09-28T17:22:06.244Z,79.30
2018-09-28T17:24:34.498Z,81.20
2018-09-28T17:27:03.121Z,81.80
2018-09-28T17:29:31.387Z,82.00
2018-09-28T17:31:59.649Z,83.60
2018-09-28T17:34:27.917Z,85.10
2018-09-28T17:36:56.298Z,85.10
2018-09-28T17:39:24.593Z,84.80
2018-09-28T17:41:53.187Z,85.30
2018-09-28T17:44:21.421Z,85.80
2018-09-28T17:46:49.747Z,87.40
2018-09-28T17:49:18.016Z,88.10
2018-09-28T17:51:46.346Z,87.50
2018-09-28T17:54:14.647Z,86.90
2018-09-28T17:56:42.950Z,89.40
2018-09-28T17:59:11.617Z,89.40
2018-09-28T18:01:39.945Z,89.30
2018-09-28T18:04:09.425Z,89.50
2018-09-28T18:06:37.758Z,90.40
2018-09-28T18:09:08.326Z,89.80
2018-09-28T18:11:36.605Z,90.30
2018-09-28T18:14:05.286Z,91.00
2018-09-28T18:16:33.509Z,90.10
2018-09-28T18:19:01.994Z,90.40
2018-09-28T18:21:30.346Z,90.20
2018-09-28T18:23:58.601Z,90.60
2018-09-28T18:26:26.881Z,90.30
2018-09-28T18:28:55.180Z,90.80
2018-09-28T18:31:23.480Z,90.40
2018-09-28T18:33:51.750Z,90.70
2018-09-28T18:36:20.639Z,90.70
2018-09-28T18:38:48.903Z,90.90
2018-09-28T18:41:17.282Z,91.10
2018-09-28T18:43:45.716Z,91.20
2018-09-28T18:46:14.094Z,91.40
2018-09-28T18:51:35.663Z,93.20
2018-09-28T18:54:04.490Z,92.50
2018-09-28T18:56:34.307Z,92.30
2018-09-28T18:59:02.742Z,92.30
2018-09-28T19:01:31.076Z,92.70
2018-09-28T19:03:59.431Z,93.20
2018-09-28T19:06:27.821Z,93.70
2018-09-28T19:08:56.348Z,93.90
2018-09-28T19:11:24.782Z,93.40
2018-09-28T19:13:53.278Z,94.10
2018-09-28T19:16:21.635Z,93.80
2018-09-28T19:18:50.285Z,94.40
2018-09-28T19:21:18.730Z,93.40
2018-09-28T19:23:47.155Z,93.40
2018-09-28T19:26:15.580Z,93.20
2018-09-28T19:28:43.940Z,93.40
2018-09-28T19:31:12.682Z,93.20
2018-09-28T19:33:41.098Z,94.10
2018-09-28T19:36:09.511Z,93.90
2018-09-28T19:38:38.916Z,93.90
2018-09-28T19:41:07.245Z,94.60
2018-09-28T19:43:35.619Z,94.10
2018-09-28T19:46:04.002Z,94.70
2018-09-28T19:48:32.335Z,95.00
2018-09-28T19:51:00.612Z,95.20
2018-09-28T19:53:28.882Z,94.60
2018-09-28T19:55:57.247Z,95.10
2018-09-28T19:58:25.626Z,96.00
2018-09-28T20:00:53.922Z,95.00
2018-09-28T20:03:22.299Z,95.60
2018-09-28T20:05:50.643Z,95.50
2018-09-28T20:08:19.090Z,94.80
2018-09-28T20:10:47.415Z,94.60
2018-09-28T20:13:15.980Z,94.30
2018-09-28T20:15:44.677Z,94.50
2018-09-28T20:18:13.125Z,94.00
2018-09-28T20:20:42.526Z,93.90
2018-09-28T20:23:11.202Z,93.80
2018-09-28T20:25:41.604Z,93.70
2018-09-28T20:28:13.959Z,93.70
2018-09-28T20:30:43.711Z,94.10
2018-09-28T20:33:12.162Z,94.40
2018-09-28T20:35:40.470Z,94.30
2018-09-28T20:38:08.900Z,94.40
2018-09-28T20:40:38.228Z,94.40
2018-09-28T20:43:06.698Z,94.20
2018-09-28T20:45:36.657Z,94.70
2018-09-28T20:48:05.098Z,94.80
2018-09-28T20:50:35.591Z,94.60
2018-09-28T20:53:03.982Z,95.10
2018-09-28T20:55:32.448Z,95.20
2018-09-28T20:58:00.818Z,95.10
2018-09-28T21:00:29.594Z,95.50
2018-09-28T21:02:57.967Z,95.40
2018-09-28T21:05:26.370Z,96.00
2018-09-28T21:07:54.722Z,96.50
2018-09-28T21:10:23.192Z,96.80
2018-09-28T21:12:52.428Z,96.70
2018-09-28T21:15:20.872Z,97.00
2018-09-28T21:17:49.297Z,97.40
2018-09-28T21:20:17.737Z,97.60
2018-09-28T21:22:46.178Z,98.00
2018-09-28T21:25:14.495Z,98.10
2018-09-28T21:27:42.869Z,97.60
2018-09-28T21:30:11.440Z,98.20
2018-09-28T21:32:39.784Z,97.90
2018-09-28T21:35:08.405Z,97.50
2018-09-28T21:37:36.805Z,97.50
2018-09-28T21:40:05.777Z,96.80
2018-09-28T21:44:03.601Z,96.80
2018-09-28T21:46:32.823Z,96.80
2018-09-28T21:49:01.139Z,97.00
2018-09-28T21:51:29.465Z,96.50
2018-09-28T21:53:57.838Z,96.60
2018-09-28T21:56:26.116Z,96.60
2018-09-28T21:58:54.550Z,96.60
2018-09-28T22:01:23.004Z,96.90
2018-09-28T22:03:51.392Z,96.90
2018-09-28T22:06:19.667Z,96.70
2018-09-28T22:08:47.942Z,96.60
2018-09-28T22:11:16.379Z,96.60
2018-09-28T22:13:45.773Z,96.50
2018-09-28T22:16:13.981Z,96.60
2018-09-28T22:18:42.282Z,97.10
2018-09-28T22:21:10.545Z,97.30
2018-09-28T22:23:38.817Z,97.00
2018-09-28T22:26:07.119Z,97.10
2018-09-28T22:28:35.386Z,97.40
2018-09-28T22:31:03.820Z,97.40
2018-09-28T22:33:32.112Z,98.30
2018-09-28T22:36:00.420Z,98.00
2018-09-28T22:38:28.826Z,98.50
2018-09-28T22:40:57.085Z,98.50
2018-09-28T22:43:25.444Z,98.50
2018-09-28T22:45:53.733Z,98.90
2018-09-28T22:48:22.102Z,99.10
2018-09-28T22:50:50.481Z,99.10
2018-09-28T22:53:19.562Z,99.20
2018-09-28T22:55:48.095Z,99.60
2018-09-28T22:58:16.374Z,99.90
2018-09-28T23:00:44.705Z,99.90
2018-09-28T23:03:13.277Z,99.90
2018-09-28T23:05:41.646Z,99.90
2018-09-28T23:08:09.952Z,99.90
2018-09-28T23:10:38.314Z,99.90
2018-09-28T23:13:06.735Z,99.90
2018-09-28T23:15:35.021Z,99.90
2018-09-28T23:18:03.991Z,99.90
2018-09-28T23:20:32.335Z,99.90
2018-09-28T23:23:00.885Z,99.90
2018-09-28T23:25:29.148Z,99.90
2018-09-28T23:27:57.433Z,99.90
2018-09-28T23:30:25.696Z,99.90
2018-09-28T23:32:54.381Z,99.90
2018-09-28T23:35:22.656Z,99.90
2018-09-28T23:37:51.021Z,99.90
2018-09-28T23:40:19.444Z,99.90
2018-09-28T23:42:47.705Z,99.90
2018-09-28T23:45:16.193Z,99.90
2018-09-28T23:47:44.563Z,99.90
2018-09-28T23:50:12.738Z,99.90
2018-09-28T23:52:41.031Z,99.90
2018-09-28T23:55:09.311Z,99.90
2018-09-28T23:57:37.597Z,99.90
